Terminal Aerodrome Forecast
Issued by NWS

Home | Current Version | Previous Version | Text Only | Print | Product List | Glossary Off
Versions: 1 2 3 4 5 6 7 8 9 10 11 12 13 14 15 16 17

000
FTUS43 KUNR 261000 AAA
TAFGCC
TAF AMD
KGCC 261000Z 2610/2706 01009KT P6SM OVC012
     FM261400 03010KT 5SM -RA BR BKN005 OVC010
     FM261800 01014KT 5SM -RA BR SCT005 OVC010=

USA.gov is the U.S. government's official web portal to all federal, state and local government web resources and services.